sensor_id;sensor_type;location;lat;lon;timestamp;P1;durP1;ratioP1;P2;durP2;ratioP2
71046;SDS011;58703;48.978;8.982;2024-02-14T00:00:21;6.18;;;3.90;;
71046;SDS011;58703;48.978;8.982;2024-02-14T00:02:51;5.53;;;3.90;;
71046;SDS011;58703;48.978;8.982;2024-02-14T00:05:18;5.30;;;3.58;;
71046;SDS011;58703;48.978;8.982;2024-02-14T00:07:45;8.47;;;4.77;;
71046;SDS011;58703;48.978;8.982;2024-02-14T00:10:10;7.55;;;4.30;;
71046;SDS011;58703;48.978;8.982;2024-02-14T00:12:38;3.67;;;2.70;;
71046;SDS011;58703;48.978;8.982;2024-02-14T00:15:04;5.13;;;3.40;;
71046;SDS011;58703;48.978;8.982;2024-02-14T00:17:36;5.18;;;3.20;;
71046;SDS011;58703;48.978;8.982;2024-02-14T00:20:03;6.40;;;2.90;;
71046;SDS011;58703;48.978;8.982;2024-02-14T00:22:31;5.45;;;3.05;;
71046;SDS011;58703;48.978;8.982;2024-02-14T00:25:00;5.93;;;2.88;;
71046;SDS011;58703;48.978;8.982;2024-02-14T00:27:27;6.43;;;2.80;;
71046;SDS011;58703;48.978;8.982;2024-02-14T00:29:54;5.30;;;3.38;;
71046;SDS011;58703;48.978;8.982;2024-02-14T00:32:21;5.55;;;3.58;;
71046;SDS011;58703;48.978;8.982;2024-02-14T00:34:46;5.28;;;3.05;;
71046;SDS011;58703;48.978;8.982;2024-02-14T00:37:16;5.10;;;3.63;;
71046;SDS011;58703;48.978;8.982;2024-02-14T00:39:42;6.40;;;3.33;;
71046;SDS011;58703;48.978;8.982;2024-02-14T00:42:09;4.97;;;3.50;;
71046;SDS011;58703;48.978;8.982;2024-02-14T00:44:36;5.97;;;4.10;;
71046;SDS011;58703;48.978;8.982;2024-02-14T00:47:01;10.02;;;4.63;;
71046;SDS011;58703;48.978;8.982;2024-02-14T00:49:30;5.68;;;3.88;;
71046;SDS011;58703;48.978;8.982;2024-02-14T00:52:01;9.20;;;4.28;;
71046;SDS011;58703;48.978;8.982;2024-02-14T00:54:28;6.13;;;4.40;;
71046;SDS011;58703;48.978;8.982;2024-02-14T00:56:55;8.32;;;3.50;;
71046;SDS011;58703;48.978;8.982;2024-02-14T00:59:22;6.88;;;4.03;;
71046;SDS011;58703;48.978;8.982;2024-02-14T01:01:49;7.05;;;4.10;;
71046;SDS011;58703;48.978;8.982;2024-02-14T01:04:16;7.35;;;4.85;;
71046;SDS011;58703;48.978;8.982;2024-02-14T01:06:45;9.30;;;5.07;;
71046;SDS011;58703;48.978;8.982;2024-02-14T01:09:11;7.88;;;5.00;;
71046;SDS011;58703;48.978;8.982;2024-02-14T01:11:39;8.75;;;5.00;;
71046;SDS011;58703;48.978;8.982;2024-02-14T01:14:06;7.40;;;4.68;;
71046;SDS011;58703;48.978;8.982;2024-02-14T01:16:33;6.60;;;4.07;;
71046;SDS011;58703;48.978;8.982;2024-02-14T01:18:58;5.65;;;4.07;;
71046;SDS011;58703;48.978;8.982;2024-02-14T01:21:25;8.23;;;4.53;;
71046;SDS011;58703;48.978;8.982;2024-02-14T01:23:53;7.57;;;4.35;;
71046;SDS011;58703;48.978;8.982;2024-02-14T01:26:19;6.50;;;4.57;;
71046;SDS011;58703;48.978;8.982;2024-02-14T01:28:47;7.18;;;4.47;;
71046;SDS011;58703;48.978;8.982;2024-02-14T01:31:14;8.27;;;5.05;;
71046;SDS011;58703;48.978;8.982;2024-02-14T01:33:41;8.33;;;4.30;;
71046;SDS011;58703;48.978;8.982;2024-02-14T01:36:07;8.48;;;3.90;;
71046;SDS011;58703;48.978;8.982;2024-02-14T01:38:32;6.27;;;4.03;;
71046;SDS011;58703;48.978;8.982;2024-02-14T01:41:02;6.88;;;3.53;;
71046;SDS011;58703;48.978;8.982;2024-02-14T01:43:29;4.07;;;3.05;;
71046;SDS011;58703;48.978;8.982;2024-02-14T01:46:00;4.75;;;3.13;;
71046;SDS011;58703;48.978;8.982;2024-02-14T01:48:34;5.15;;;3.33;;
71046;SDS011;58703;48.978;8.982;2024-02-14T01:51:02;5.73;;;2.90;;
71046;SDS011;58703;48.978;8.982;2024-02-14T01:53:32;5.88;;;3.30;;
71046;SDS011;58703;48.978;8.982;2024-02-14T01:56:00;6.63;;;4.00;;
71046;SDS011;58703;48.978;8.982;2024-02-14T01:58:30;5.22;;;3.83;;
71046;SDS011;58703;48.978;8.982;2024-02-14T02:00:57;6.95;;;3.95;;
71046;SDS011;58703;48.978;8.982;2024-02-14T02:03:24;6.73;;;3.87;;
71046;SDS011;58703;48.978;8.982;2024-02-14T02:05:51;7.10;;;3.45;;
71046;SDS011;58703;48.978;8.982;2024-02-14T02:08:20;6.25;;;3.55;;
71046;SDS011;58703;48.978;8.982;2024-02-14T02:10:49;5.78;;;3.20;;
71046;SDS011;58703;48.978;8.982;2024-02-14T02:13:16;7.00;;;3.00;;
71046;SDS011;58703;48.978;8.982;2024-02-14T02:15:41;6.60;;;3.73;;
71046;SDS011;58703;48.978;8.982;2024-02-14T02:18:12;5.38;;;3.50;;
71046;SDS011;58703;48.978;8.982;2024-02-14T02:20:41;3.40;;;2.95;;
71046;SDS011;58703;48.978;8.982;2024-02-14T02:23:10;5.90;;;3.75;;
71046;SDS011;58703;48.978;8.982;2024-02-14T02:25:41;5.32;;;3.67;;
71046;SDS011;58703;48.978;8.982;2024-02-14T02:28:09;6.17;;;3.33;;
71046;SDS011;58703;48.978;8.982;2024-02-14T02:30:36;5.05;;;4.07;;
71046;SDS011;58703;48.978;8.982;2024-02-14T02:33:03;5.43;;;3.78;;
71046;SDS011;58703;48.978;8.982;2024-02-14T02:35:31;4.72;;;3.75;;
71046;SDS011;58703;48.978;8.982;2024-02-14T02:37:58;6.35;;;4.28;;
71046;SDS011;58703;48.978;8.982;2024-02-14T02:40:25;8.53;;;4.40;;
71046;SDS011;58703;48.978;8.982;2024-02-14T02:42:54;6.10;;;4.10;;
71046;SDS011;58703;48.978;8.982;2024-02-14T02:45:21;6.25;;;4.40;;
71046;SDS011;58703;48.978;8.982;2024-02-14T02:47:48;6.72;;;4.82;;
71046;SDS011;58703;48.978;8.982;2024-02-14T02:50:17;5.60;;;4.47;;
71046;SDS011;58703;48.978;8.982;2024-02-14T02:52:44;7.37;;;3.97;;
71046;SDS011;58703;48.978;8.982;2024-02-14T02:55:12;5.97;;;4.22;;
71046;SDS011;58703;48.978;8.982;2024-02-14T02:57:45;6.63;;;4.75;;
71046;SDS011;58703;48.978;8.982;2024-02-14T03:00:12;9.07;;;5.50;;
71046;SDS011;58703;48.978;8.982;2024-02-14T03:02:39;9.35;;;4.93;;
71046;SDS011;58703;48.978;8.982;2024-02-14T03:05:13;6.47;;;4.67;;
71046;SDS011;58703;48.978;8.982;2024-02-14T03:07:44;9.32;;;4.78;;
71046;SDS011;58703;48.978;8.982;2024-02-14T03:10:12;8.25;;;5.50;;
71046;SDS011;58703;48.978;8.982;2024-02-14T03:12:40;8.13;;;4.38;;
71046;SDS011;58703;48.978;8.982;2024-02-14T03:15:07;8.23;;;4.72;;
71046;SDS011;58703;48.978;8.982;2024-02-14T03:17:36;8.60;;;4.07;;
71046;SDS011;58703;48.978;8.982;2024-02-14T03:20:05;8.00;;;4.72;;
71046;SDS011;58703;48.978;8.982;2024-02-14T03:22:36;7.72;;;4.68;;
71046;SDS011;58703;48.978;8.982;2024-02-14T03:25:03;9.27;;;5.20;;
71046;SDS011;58703;48.978;8.982;2024-02-14T03:27:31;12.25;;;4.63;;
71046;SDS011;58703;48.978;8.982;2024-02-14T03:29:58;6.03;;;3.83;;
71046;SDS011;58703;48.978;8.982;2024-02-14T03:32:26;6.25;;;3.83;;
71046;SDS011;58703;48.978;8.982;2024-02-14T03:34:53;4.70;;;2.83;;
71046;SDS011;58703;48.978;8.982;2024-02-14T03:37:20;4.32;;;3.03;;
71046;SDS011;58703;48.978;8.982;2024-02-14T03:39:46;5.28;;;3.58;;
71046;SDS011;58703;48.978;8.982;2024-02-14T03:42:13;4.00;;;3.30;;
71046;SDS011;58703;48.978;8.982;2024-02-14T03:44:42;9.43;;;4.32;;
71046;SDS011;58703;48.978;8.982;2024-02-14T03:47:10;8.35;;;4.72;;
71046;SDS011;58703;48.978;8.982;2024-02-14T03:49:37;6.90;;;4.20;;
71046;SDS011;58703;48.978;8.982;2024-02-14T03:52:05;6.53;;;4.25;;
71046;SDS011;58703;48.978;8.982;2024-02-14T03:54:38;8.83;;;4.23;;
71046;SDS011;58703;48.978;8.982;2024-02-14T03:57:05;7.15;;;4.72;;
71046;SDS011;58703;48.978;8.982;2024-02-14T03:59:38;8.23;;;4.10;;
71046;SDS011;58703;48.978;8.982;2024-02-14T04:02:20;5.93;;;3.33;;
71046;SDS011;58703;48.978;8.982;2024-02-14T04:04:47;6.97;;;3.58;;
71046;SDS011;58703;48.978;8.982;2024-02-14T04:07:13;6.37;;;3.40;;
71046;SDS011;58703;48.978;8.982;2024-02-14T04:09:40;8.60;;;4.63;;
71046;SDS011;58703;48.978;8.982;2024-02-14T04:12:07;7.68;;;4.10;;
71046;SDS011;58703;48.978;8.982;2024-02-14T04:14:33;7.22;;;4.03;;
71046;SDS011;58703;48.978;8.982;2024-02-14T04:17:00;6.57;;;4.90;;
71046;SDS011;58703;48.978;8.982;2024-02-14T04:19:28;7.65;;;3.88;;
71046;SDS011;58703;48.978;8.982;2024-02-14T04:21:55;6.93;;;4.22;;
71046;SDS011;58703;48.978;8.982;2024-02-14T04:24:22;8.63;;;5.78;;
71046;SDS011;58703;48.978;8.982;2024-02-14T04:26:49;7.85;;;5.03;;
71046;SDS011;58703;48.978;8.982;2024-02-14T04:29:17;7.07;;;4.95;;
71046;SDS011;58703;48.978;8.982;2024-02-14T04:31:43;6.05;;;4.88;;
71046;SDS011;58703;48.978;8.982;2024-02-14T04:34:09;8.45;;;4.50;;
71046;SDS011;58703;48.978;8.982;2024-02-14T04:36:36;5.47;;;4.13;;
71046;SDS011;58703;48.978;8.982;2024-02-14T04:39:03;5.90;;;4.40;;
71046;SDS011;58703;48.978;8.982;2024-02-14T04:41:30;9.88;;;4.70;;
71046;SDS011;58703;48.978;8.982;2024-02-14T04:43:57;7.78;;;4.82;;
71046;SDS011;58703;48.978;8.982;2024-02-14T04:46:24;10.90;;;4.90;;
71046;SDS011;58703;48.978;8.982;2024-02-14T04:48:49;6.88;;;4.50;;
71046;SDS011;58703;48.978;8.982;2024-02-14T04:51:16;6.87;;;4.77;;
71046;SDS011;58703;48.978;8.982;2024-02-14T04:53:43;8.52;;;4.13;;
71046;SDS011;58703;48.978;8.982;2024-02-14T04:56:10;10.07;;;5.05;;
71046;SDS011;58703;48.978;8.982;2024-02-14T04:58:37;9.73;;;4.18;;
71046;SDS011;58703;48.978;8.982;2024-02-14T05:01:04;7.05;;;4.28;;
71046;SDS011;58703;48.978;8.982;2024-02-14T05:03:29;6.60;;;4.35;;
71046;SDS011;58703;48.978;8.982;2024-02-14T05:05:58;8.15;;;4.28;;
71046;SDS011;58703;48.978;8.982;2024-02-14T05:08:29;6.28;;;4.70;;
71046;SDS011;58703;48.978;8.982;2024-02-14T05:10:56;8.93;;;4.00;;
71046;SDS011;58703;48.978;8.982;2024-02-14T05:13:21;5.57;;;3.67;;
71046;SDS011;58703;48.978;8.982;2024-02-14T05:15:49;5.03;;;3.95;;
71046;SDS011;58703;48.978;8.982;2024-02-14T05:18:16;4.47;;;3.60;;
71046;SDS011;58703;48.978;8.982;2024-02-14T05:20:43;7.10;;;4.25;;
71046;SDS011;58703;48.978;8.982;2024-02-14T05:23:11;6.32;;;4.05;;
71046;SDS011;58703;48.978;8.982;2024-02-14T05:25:36;12.68;;;5.07;;
71046;SDS011;58703;48.978;8.982;2024-02-14T05:28:03;9.10;;;5.03;;
71046;SDS011;58703;48.978;8.982;2024-02-14T05:30:30;9.85;;;5.63;;
71046;SDS011;58703;48.978;8.982;2024-02-14T05:32:58;9.23;;;5.17;;
71046;SDS011;58703;48.978;8.982;2024-02-14T05:35:25;7.97;;;6.18;;
71046;SDS011;58703;48.978;8.982;2024-02-14T05:37:52;9.57;;;6.70;;
71046;SDS011;58703;48.978;8.982;2024-02-14T05:40:19;10.35;;;6.78;;
71046;SDS011;58703;48.978;8.982;2024-02-14T05:42:45;9.65;;;7.20;;
71046;SDS011;58703;48.978;8.982;2024-02-14T05:45:13;9.33;;;6.10;;
71046;SDS011;58703;48.978;8.982;2024-02-14T05:47:40;9.30;;;6.82;;
71046;SDS011;58703;48.978;8.982;2024-02-14T05:50:06;8.65;;;6.35;;
71046;SDS011;58703;48.978;8.982;2024-02-14T05:52:35;7.13;;;4.68;;
71046;SDS011;58703;48.978;8.982;2024-02-14T05:55:02;9.57;;;5.40;;
71046;SDS011;58703;48.978;8.982;2024-02-14T05:57:29;5.97;;;4.23;;
71046;SDS011;58703;48.978;8.982;2024-02-14T05:59:56;7.63;;;4.35;;
71046;SDS011;58703;48.978;8.982;2024-02-14T06:02:23;8.48;;;4.80;;
71046;SDS011;58703;48.978;8.982;2024-02-14T06:04:50;8.18;;;4.38;;
71046;SDS011;58703;48.978;8.982;2024-02-14T06:07:17;7.35;;;4.38;;
71046;SDS011;58703;48.978;8.982;2024-02-14T06:09:44;6.73;;;3.47;;
71046;SDS011;58703;48.978;8.982;2024-02-14T06:12:11;8.05;;;4.90;;
71046;SDS011;58703;48.978;8.982;2024-02-14T06:14:38;8.77;;;5.15;;
71046;SDS011;58703;48.978;8.982;2024-02-14T06:17:05;5.70;;;4.07;;
71046;SDS011;58703;48.978;8.982;2024-02-14T06:19:32;11.15;;;5.03;;
71046;SDS011;58703;48.978;8.982;2024-02-14T06:22:00;12.25;;;5.40;;
71046;SDS011;58703;48.978;8.982;2024-02-14T06:24:26;7.95;;;5.32;;
71046;SDS011;58703;48.978;8.982;2024-02-14T06:26:54;12.00;;;6.47;;
71046;SDS011;58703;48.978;8.982;2024-02-14T06:29:21;8.65;;;5.45;;
71046;SDS011;58703;48.978;8.982;2024-02-14T06:31:48;10.13;;;6.25;;
71046;SDS011;58703;48.978;8.982;2024-02-14T06:34:16;8.02;;;5.82;;
71046;SDS011;58703;48.978;8.982;2024-02-14T06:36:42;12.32;;;5.93;;
71046;SDS011;58703;48.978;8.982;2024-02-14T06:39:10;9.45;;;6.00;;
71046;SDS011;58703;48.978;8.982;2024-02-14T06:41:37;13.10;;;6.28;;
71046;SDS011;58703;48.978;8.982;2024-02-14T06:44:04;10.18;;;5.70;;
71046;SDS011;58703;48.978;8.982;2024-02-14T06:46:31;8.70;;;6.00;;
71046;SDS011;58703;48.978;8.982;2024-02-14T06:48:59;10.05;;;6.13;;
71046;SDS011;58703;48.978;8.982;2024-02-14T06:51:26;13.88;;;6.72;;
71046;SDS011;58703;48.978;8.982;2024-02-14T06:53:52;10.98;;;7.28;;
71046;SDS011;58703;48.978;8.982;2024-02-14T06:56:19;10.20;;;6.50;;
71046;SDS011;58703;48.978;8.982;2024-02-14T06:58:45;13.25;;;7.30;;
71046;SDS011;58703;48.978;8.982;2024-02-14T07:01:12;10.50;;;6.15;;
71046;SDS011;58703;48.978;8.982;2024-02-14T07:03:42;9.75;;;5.60;;
71046;SDS011;58703;48.978;8.982;2024-02-14T07:06:09;9.23;;;5.93;;
71046;SDS011;58703;48.978;8.982;2024-02-14T07:08:35;10.23;;;5.28;;
71046;SDS011;58703;48.978;8.982;2024-02-14T07:11:02;6.95;;;5.22;;
71046;SDS011;58703;48.978;8.982;2024-02-14T07:13:29;7.40;;;5.32;;
71046;SDS011;58703;48.978;8.982;2024-02-14T07:15:57;9.23;;;5.75;;
71046;SDS011;58703;48.978;8.982;2024-02-14T07:18:24;7.38;;;4.75;;
71046;SDS011;58703;48.978;8.982;2024-02-14T07:20:51;8.40;;;4.85;;
71046;SDS011;58703;48.978;8.982;2024-02-14T07:23:18;9.35;;;4.65;;
71046;SDS011;58703;48.978;8.982;2024-02-14T07:25:45;6.80;;;5.00;;
71046;SDS011;58703;48.978;8.982;2024-02-14T07:28:12;9.35;;;4.72;;
71046;SDS011;58703;48.978;8.982;2024-02-14T07:30:39;7.82;;;5.30;;
71046;SDS011;58703;48.978;8.982;2024-02-14T07:33:06;8.07;;;5.30;;
71046;SDS011;58703;48.978;8.982;2024-02-14T07:35:34;9.40;;;5.40;;
71046;SDS011;58703;48.978;8.982;2024-02-14T07:38:02;11.68;;;5.50;;
71046;SDS011;58703;48.978;8.982;2024-02-14T07:40:28;8.93;;;5.10;;
71046;SDS011;58703;48.978;8.982;2024-02-14T07:42:58;8.40;;;4.93;;
71046;SDS011;58703;48.978;8.982;2024-02-14T07:45:23;9.20;;;5.25;;
71046;SDS011;58703;48.978;8.982;2024-02-14T07:47:50;11.13;;;5.70;;
71046;SDS011;58703;48.978;8.982;2024-02-14T07:50:17;10.43;;;6.25;;
71046;SDS011;58703;48.978;8.982;2024-02-14T07:52:45;9.13;;;6.32;;
71046;SDS011;58703;48.978;8.982;2024-02-14T07:55:11;9.80;;;6.53;;
71046;SDS011;58703;48.978;8.982;2024-02-14T07:57:42;11.75;;;6.68;;
71046;SDS011;58703;48.978;8.982;2024-02-14T08:00:09;11.82;;;7.32;;
71046;SDS011;58703;48.978;8.982;2024-02-14T08:02:36;21.00;;;11.43;;
71046;SDS011;58703;48.978;8.982;2024-02-14T08:05:03;21.55;;;12.75;;
71046;SDS011;58703;48.978;8.982;2024-02-14T08:07:35;20.93;;;11.43;;
71046;SDS011;58703;48.978;8.982;2024-02-14T08:10:01;26.88;;;13.63;;
71046;SDS011;58703;48.978;8.982;2024-02-14T08:12:27;23.92;;;13.50;;
71046;SDS011;58703;48.978;8.982;2024-02-14T08:14:52;29.33;;;16.50;;
71046;SDS011;58703;48.978;8.982;2024-02-14T08:17:19;27.80;;;15.30;;
71046;SDS011;58703;48.978;8.982;2024-02-14T08:19:45;25.43;;;11.93;;
71046;SDS011;58703;48.978;8.982;2024-02-14T08:22:12;23.05;;;13.20;;
71046;SDS011;58703;48.978;8.982;2024-02-14T08:24:39;19.00;;;11.45;;
71046;SDS011;58703;48.978;8.982;2024-02-14T08:27:06;18.88;;;12.02;;
71046;SDS011;58703;48.978;8.982;2024-02-14T08:29:33;22.40;;;10.43;;
71046;SDS011;58703;48.978;8.982;2024-02-14T08:32:00;16.70;;;10.10;;
71046;SDS011;58703;48.978;8.982;2024-02-14T08:34:27;16.40;;;8.70;;
71046;SDS011;58703;48.978;8.982;2024-02-14T08:36:54;14.70;;;8.68;;
71046;SDS011;58703;48.978;8.982;2024-02-14T08:39:22;19.17;;;9.27;;
71046;SDS011;58703;48.978;8.982;2024-02-14T08:41:49;10.35;;;6.22;;
71046;SDS011;58703;48.978;8.982;2024-02-14T08:44:17;11.10;;;6.30;;
71046;SDS011;58703;48.978;8.982;2024-02-14T08:46:44;12.27;;;6.40;;
71046;SDS011;58703;48.978;8.982;2024-02-14T08:49:14;16.27;;;9.95;;
71046;SDS011;58703;48.978;8.982;2024-02-14T08:51:40;14.18;;;7.93;;
71046;SDS011;58703;48.978;8.982;2024-02-14T08:54:09;12.95;;;8.27;;
71046;SDS011;58703;48.978;8.982;2024-02-14T08:56:36;13.70;;;7.93;;
71046;SDS011;58703;48.978;8.982;2024-02-14T08:59:03;14.13;;;6.75;;
71046;SDS011;58703;48.978;8.982;2024-02-14T09:01:31;12.05;;;6.07;;
71046;SDS011;58703;48.978;8.982;2024-02-14T09:03:58;16.73;;;7.88;;
71046;SDS011;58703;48.978;8.982;2024-02-14T09:06:24;12.77;;;5.73;;
71046;SDS011;58703;48.978;8.982;2024-02-14T09:08:52;9.77;;;5.47;;
71046;SDS011;58703;48.978;8.982;2024-02-14T09:11:21;10.23;;;5.80;;
71046;SDS011;58703;48.978;8.982;2024-02-14T09:13:48;10.40;;;4.57;;
71046;SDS011;58703;48.978;8.982;2024-02-14T09:16:18;9.77;;;5.15;;
71046;SDS011;58703;48.978;8.982;2024-02-14T09:18:47;8.80;;;4.97;;
71046;SDS011;58703;48.978;8.982;2024-02-14T09:21:14;9.70;;;6.15;;
71046;SDS011;58703;48.978;8.982;2024-02-14T09:23:42;13.10;;;7.30;;
71046;SDS011;58703;48.978;8.982;2024-02-14T09:26:09;11.47;;;7.13;;
71046;SDS011;58703;48.978;8.982;2024-02-14T09:28:36;9.30;;;5.47;;
71046;SDS011;58703;48.978;8.982;2024-02-14T09:31:04;10.50;;;7.40;;
71046;SDS011;58703;48.978;8.982;2024-02-14T09:33:31;13.15;;;7.35;;
71046;SDS011;58703;48.978;8.982;2024-02-14T09:35:58;9.60;;;6.72;;
71046;SDS011;58703;48.978;8.982;2024-02-14T09:38:26;13.07;;;6.47;;
71046;SDS011;58703;48.978;8.982;2024-02-14T09:40:53;8.15;;;5.20;;
71046;SDS011;58703;48.978;8.982;2024-02-14T09:43:57;6.32;;;4.20;;
71046;SDS011;58703;48.978;8.982;2024-02-14T09:46:18;5.57;;;3.10;;
71046;SDS011;58703;48.978;8.982;2024-02-14T09:48:46;8.07;;;3.10;;
71046;SDS011;58703;48.978;8.982;2024-02-14T09:51:13;6.27;;;3.63;;
71046;SDS011;58703;48.978;8.982;2024-02-14T09:53:40;8.32;;;3.80;;
71046;SDS011;58703;48.978;8.982;2024-02-14T09:56:06;9.38;;;4.95;;
71046;SDS011;58703;48.978;8.982;2024-02-14T09:58:35;15.40;;;7.90;;
71046;SDS011;58703;48.978;8.982;2024-02-14T10:01:03;14.05;;;7.82;;
71046;SDS011;58703;48.978;8.982;2024-02-14T10:03:31;12.17;;;6.40;;
71046;SDS011;58703;48.978;8.982;2024-02-14T10:05:58;12.13;;;5.32;;
71046;SDS011;58703;48.978;8.982;2024-02-14T10:08:25;7.93;;;4.63;;
71046;SDS011;58703;48.978;8.982;2024-02-14T10:10:56;8.65;;;4.55;;
71046;SDS011;58703;48.978;8.982;2024-02-14T10:13:29;10.23;;;4.43;;
71046;SDS011;58703;48.978;8.982;2024-02-14T10:15:58;9.70;;;4.50;;
71046;SDS011;58703;48.978;8.982;2024-02-14T10:18:25;9.40;;;4.20;;
71046;SDS011;58703;48.978;8.982;2024-02-14T10:20:52;7.45;;;3.80;;
71046;SDS011;58703;48.978;8.982;2024-02-14T10:23:24;8.38;;;4.65;;
71046;SDS011;58703;48.978;8.982;2024-02-14T10:25:53;28.88;;;13.38;;
71046;SDS011;58703;48.978;8.982;2024-02-14T10:28:21;17.93;;;9.00;;
71046;SDS011;58703;48.978;8.982;2024-02-14T10:30:49;20.10;;;9.23;;
71046;SDS011;58703;48.978;8.982;2024-02-14T10:33:20;11.68;;;6.00;;
71046;SDS011;58703;48.978;8.982;2024-02-14T10:35:45;12.68;;;4.95;;
71046;SDS011;58703;48.978;8.982;2024-02-14T10:38:13;9.73;;;4.68;;
71046;SDS011;58703;48.978;8.982;2024-02-14T10:40:42;7.13;;;3.70;;
71046;SDS011;58703;48.978;8.982;2024-02-14T10:43:11;5.50;;;3.50;;
71046;SDS011;58703;48.978;8.982;2024-02-14T10:45:38;4.15;;;2.00;;
71046;SDS011;58703;48.978;8.982;2024-02-14T10:48:06;6.00;;;2.92;;
71046;SDS011;58703;48.978;8.982;2024-02-14T10:50:40;5.72;;;2.13;;
71046;SDS011;58703;48.978;8.982;2024-02-14T10:53:16;4.67;;;2.10;;
71046;SDS011;58703;48.978;8.982;2024-02-14T10:55:47;2.67;;;2.00;;
71046;SDS011;58703;48.978;8.982;2024-02-14T10:58:25;4.65;;;1.90;;
71046;SDS011;58703;48.978;8.982;2024-02-14T11:01:02;3.88;;;2.03;;
71046;SDS011;58703;48.978;8.982;2024-02-14T11:03:30;2.35;;;2.10;;
71046;SDS011;58703;48.978;8.982;2024-02-14T11:05:56;6.63;;;2.53;;
71046;SDS011;58703;48.978;8.982;2024-02-14T11:08:30;4.75;;;2.50;;
71046;SDS011;58703;48.978;8.982;2024-02-14T11:11:05;6.47;;;2.45;;
71046;SDS011;58703;48.978;8.982;2024-02-14T11:13:33;1.88;;;1.10;;
71046;SDS011;58703;48.978;8.982;2024-02-14T11:16:02;2.90;;;0.90;;
71046;SDS011;58703;48.978;8.982;2024-02-14T11:18:31;2.07;;;1.17;;
71046;SDS011;58703;48.978;8.982;2024-02-14T11:21:02;1.77;;;0.70;;
71046;SDS011;58703;48.978;8.982;2024-02-14T11:23:30;2.50;;;1.35;;
71046;SDS011;58703;48.978;8.982;2024-02-14T11:26:06;3.70;;;1.05;;
71046;SDS011;58703;48.978;8.982;2024-02-14T11:28:36;5.13;;;1.30;;
71046;SDS011;58703;48.978;8.982;2024-02-14T11:31:07;2.43;;;1.20;;
71046;SDS011;58703;48.978;8.982;2024-02-14T11:33:35;5.53;;;1.70;;
71046;SDS011;58703;48.978;8.982;2024-02-14T11:36:11;4.80;;;1.30;;
71046;SDS011;58703;48.978;8.982;2024-02-14T11:38:41;3.40;;;1.10;;
71046;SDS011;58703;48.978;8.982;2024-02-14T11:41:10;1.45;;;0.60;;
71046;SDS011;58703;48.978;8.982;2024-02-14T11:43:37;1.50;;;0.83;;
71046;SDS011;58703;48.978;8.982;2024-02-14T11:46:06;0.52;;;0.28;;
71046;SDS011;58703;48.978;8.982;2024-02-14T11:48:32;0.47;;;0.40;;
71046;SDS011;58703;48.978;8.982;2024-02-14T11:51:00;0.57;;;0.30;;
71046;SDS011;58703;48.978;8.982;2024-02-14T11:53:26;1.40;;;0.20;;
71046;SDS011;58703;48.978;8.982;2024-02-14T11:55:55;1.63;;;0.30;;
71046;SDS011;58703;48.978;8.982;2024-02-14T11:58:22;7.15;;;2.97;;
71046;SDS011;58703;48.978;8.982;2024-02-14T12:00:51;1.67;;;0.40;;
71046;SDS011;58703;48.978;8.982;2024-02-14T12:03:20;0.93;;;0.30;;
71046;SDS011;58703;48.978;8.982;2024-02-14T12:05:49;0.43;;;0.43;;
71046;SDS011;58703;48.978;8.982;2024-02-14T12:08:17;1.80;;;0.30;;
71046;SDS011;58703;48.978;8.982;2024-02-14T12:10:45;2.58;;;0.65;;
71046;SDS011;58703;48.978;8.982;2024-02-14T12:13:17;0.65;;;0.25;;
71046;SDS011;58703;48.978;8.982;2024-02-14T12:15:50;0.43;;;0.10;;
71046;SDS011;58703;48.978;8.982;2024-02-14T12:18:18;1.10;;;1.10;;
71046;SDS011;58703;48.978;8.982;2024-02-14T12:20:46;0.70;;;0.40;;
71046;SDS011;58703;48.978;8.982;2024-02-14T12:23:16;0.22;;;0.22;;
71046;SDS011;58703;48.978;8.982;2024-02-14T12:25:44;0.43;;;0.10;;
71046;SDS011;58703;48.978;8.982;2024-02-14T12:28:19;0.65;;;0.10;;
71046;SDS011;58703;48.978;8.982;2024-02-14T12:30:49;0.32;;;0.30;;
71046;SDS011;58703;48.978;8.982;2024-02-14T12:33:22;1.70;;;0.67;;
71046;SDS011;58703;48.978;8.982;2024-02-14T12:35:51;0.60;;;0.40;;
71046;SDS011;58703;48.978;8.982;2024-02-14T12:38:19;0.82;;;0.73;;
71046;SDS011;58703;48.978;8.982;2024-02-14T12:40:47;0.20;;;0.15;;
71046;SDS011;58703;48.978;8.982;2024-02-14T12:43:14;1.30;;;0.13;;
71046;SDS011;58703;48.978;8.982;2024-02-14T12:45:42;0.40;;;0.10;;
71046;SDS011;58703;48.978;8.982;2024-02-14T12:48:10;0.50;;;0.15;;
71046;SDS011;58703;48.978;8.982;2024-02-14T12:50:40;1.40;;;0.32;;
71046;SDS011;58703;48.978;8.982;2024-02-14T12:53:14;1.40;;;0.13;;
71046;SDS011;58703;48.978;8.982;2024-02-14T12:55:41;0.50;;;0.40;;
71046;SDS011;58703;48.978;8.982;2024-02-14T12:58:08;0.67;;;0.10;;
71046;SDS011;58703;48.978;8.982;2024-02-14T13:00:36;0.40;;;0.40;;
71046;SDS011;58703;48.978;8.982;2024-02-14T13:03:04;0.40;;;0.40;;
71046;SDS011;58703;48.978;8.982;2024-02-14T13:05:31;0.52;;;0.20;;
71046;SDS011;58703;48.978;8.982;2024-02-14T13:07:58;0.63;;;0.40;;
71046;SDS011;58703;48.978;8.982;2024-02-14T13:10:24;0.40;;;0.40;;
71046;SDS011;58703;48.978;8.982;2024-02-14T13:12:52;0.50;;;0.15;;
71046;SDS011;58703;48.978;8.982;2024-02-14T13:15:19;1.98;;;0.40;;
71046;SDS011;58703;48.978;8.982;2024-02-14T13:17:46;0.30;;;0.20;;
71046;SDS011;58703;48.978;8.982;2024-02-14T13:20:14;0.30;;;0.20;;
71046;SDS011;58703;48.978;8.982;2024-02-14T13:22:41;0.10;;;0.10;;
71046;SDS011;58703;48.978;8.982;2024-02-14T13:25:09;1.13;;;0.40;;
71046;SDS011;58703;48.978;8.982;2024-02-14T13:27:36;0.20;;;0.10;;
71046;SDS011;58703;48.978;8.982;2024-02-14T13:30:02;3.22;;;0.50;;
71046;SDS011;58703;48.978;8.982;2024-02-14T13:32:29;0.47;;;0.25;;
71046;SDS011;58703;48.978;8.982;2024-02-14T13:34:56;2.43;;;0.77;;
71046;SDS011;58703;48.978;8.982;2024-02-14T13:37:21;0.75;;;0.30;;
71046;SDS011;58703;48.978;8.982;2024-02-14T13:39:48;2.45;;;0.55;;
71046;SDS011;58703;48.978;8.982;2024-02-14T13:42:15;0.20;;;0.00;;
71046;SDS011;58703;48.978;8.982;2024-02-14T13:44:44;0.10;;;0.03;;
71046;SDS011;58703;48.978;8.982;2024-02-14T13:47:11;1.73;;;1.33;;
71046;SDS011;58703;48.978;8.982;2024-02-14T13:49:38;0.52;;;0.30;;
71046;SDS011;58703;48.978;8.982;2024-02-14T13:52:04;0.80;;;0.20;;
71046;SDS011;58703;48.978;8.982;2024-02-14T13:54:31;0.47;;;0.43;;
71046;SDS011;58703;48.978;8.982;2024-02-14T13:56:58;1.75;;;1.65;;
71046;SDS011;58703;48.978;8.982;2024-02-14T13:59:25;0.20;;;0.20;;
71046;SDS011;58703;48.978;8.982;2024-02-14T14:01:53;0.90;;;0.10;;
71046;SDS011;58703;48.978;8.982;2024-02-14T14:04:20;0.22;;;0.10;;
71046;SDS011;58703;48.978;8.982;2024-02-14T14:06:46;0.20;;;0.20;;
71046;SDS011;58703;48.978;8.982;2024-02-14T14:09:14;0.55;;;0.20;;
71046;SDS011;58703;48.978;8.982;2024-02-14T14:11:40;0.20;;;0.20;;
71046;SDS011;58703;48.978;8.982;2024-02-14T14:14:08;0.20;;;0.20;;
71046;SDS011;58703;48.978;8.982;2024-02-14T14:16:35;0.85;;;0.20;;
71046;SDS011;58703;48.978;8.982;2024-02-14T14:19:02;0.40;;;0.20;;
71046;SDS011;58703;48.978;8.982;2024-02-14T14:21:30;2.22;;;0.47;;
71046;SDS011;58703;48.978;8.982;2024-02-14T14:23:57;1.50;;;1.38;;
71046;SDS011;58703;48.978;8.982;2024-02-14T14:26:24;1.07;;;0.93;;
71046;SDS011;58703;48.978;8.982;2024-02-14T14:28:51;2.03;;;0.45;;
71046;SDS011;58703;48.978;8.982;2024-02-14T14:31:21;4.90;;;3.42;;
71046;SDS011;58703;48.978;8.982;2024-02-14T14:33:48;2.08;;;0.77;;
71046;SDS011;58703;48.978;8.982;2024-02-14T14:36:15;1.45;;;0.40;;
71046;SDS011;58703;48.978;8.982;2024-02-14T14:38:42;1.33;;;0.30;;
71046;SDS011;58703;48.978;8.982;2024-02-14T14:41:08;0.63;;;0.32;;
71046;SDS011;58703;48.978;8.982;2024-02-14T14:43:36;0.45;;;0.30;;
71046;SDS011;58703;48.978;8.982;2024-02-14T14:46:02;3.72;;;0.30;;
71046;SDS011;58703;48.978;8.982;2024-02-14T14:48:29;0.63;;;0.37;;